createdAt,value
2022-10-08T00:01:08.520Z,0
2022-10-08T00:04:28.043Z,0
2022-10-08T00:06:07.814Z,0
2022-10-08T00:07:47.575Z,0
2022-10-08T00:09:27.342Z,0
2022-10-08T00:11:07.108Z,0
2022-10-08T00:12:46.856Z,0
2022-10-08T00:14:26.628Z,0
2022-10-08T00:16:06.405Z,0
2022-10-08T00:17:46.161Z,0
2022-10-08T00:21:05.681Z,0
2022-10-08T00:24:25.248Z,0
2022-10-08T00:26:04.981Z,0
2022-10-08T00:27:44.749Z,0
2022-10-08T00:29:24.526Z,0
2022-10-08T00:31:04.273Z,0
2022-10-08T00:34:23.797Z,0
2022-10-08T00:36:03.593Z,0
2022-10-08T00:37:43.326Z,0
2022-10-08T00:39:23.110Z,0
2022-10-08T00:41:02.847Z,0
2022-10-08T00:46:02.152Z,0
2022-10-08T00:47:41.945Z,0
2022-10-08T00:49:21.678Z,0
2022-10-08T00:51:01.508Z,0
2022-10-08T00:54:20.956Z,0
2022-10-08T00:56:00.741Z,0
2022-10-08T00:57:40.504Z,0
2022-10-08T00:59:20.247Z,0
2022-10-08T01:01:00.023Z,0
2022-10-08T01:02:39.893Z,0
2022-10-08T01:04:19.557Z,0
2022-10-08T01:05:59.342Z,0
2022-10-08T01:07:39.084Z,0
2022-10-08T01:09:18.846Z,0
2022-10-08T01:10:58.620Z,0
2022-10-08T01:14:18.142Z,0
2022-10-08T01:15:57.890Z,0
2022-10-08T01:17:37.677Z,0
2022-10-08T01:19:17.420Z,0
2022-10-08T01:20:57.186Z,0
2022-10-08T01:22:37.054Z,0
2022-10-08T01:24:16.704Z,0
2022-10-08T01:25:56.547Z,0
2022-10-08T01:27:36.252Z,0
2022-10-08T01:29:16.009Z,0
2022-10-08T01:30:55.761Z,0
2022-10-08T01:34:15.290Z,0
2022-10-08T01:35:55.069Z,0
2022-10-08T01:37:34.845Z,0
2022-10-08T01:39:14.631Z,0
2022-10-08T01:40:54.379Z,0
2022-10-08T01:44:13.913Z,0
2022-10-08T01:45:53.646Z,0
2022-10-08T01:47:33.447Z,0
2022-10-08T01:50:52.927Z,0
2022-10-08T01:54:12.489Z,0
2022-10-08T01:55:52.331Z,0
2022-10-08T01:57:32.001Z,0
2022-10-08T01:59:11.764Z,0
2022-10-08T02:00:51.522Z,0
2022-10-08T02:04:11.055Z,0
2022-10-08T02:05:50.825Z,0
2022-10-08T02:07:30.571Z,0
2022-10-08T02:09:10.326Z,0
2022-10-08T02:10:50.115Z,0
2022-10-08T02:14:09.636Z,0
2022-10-08T02:15:49.418Z,0
2022-10-08T02:17:29.169Z,0
2022-10-08T02:20:48.695Z,0
2022-10-08T02:24:08.225Z,0
2022-10-08T02:25:47.968Z,0
2022-10-08T02:27:27.737Z,0
2022-10-08T02:29:07.495Z,0
2022-10-08T02:30:47.270Z,0
2022-10-08T02:34:06.841Z,0
2022-10-08T02:35:46.570Z,0
2022-10-08T02:37:26.324Z,0
2022-10-08T02:40:45.851Z,0
2022-10-08T02:45:45.134Z,0
2022-10-08T02:47:24.910Z,0
2022-10-08T02:49:04.664Z,0
2022-10-08T02:50:44.435Z,0
2022-10-08T02:54:03.991Z,0
2022-10-08T02:55:43.777Z,0
2022-10-08T02:57:23.521Z,0
2022-10-08T02:59:03.247Z,0
2022-10-08T03:00:43.014Z,0
2022-10-08T03:04:02.548Z,0
2022-10-08T03:05:42.343Z,0
2022-10-08T03:07:22.107Z,0
2022-10-08T03:10:41.604Z,0
2022-10-08T03:14:01.120Z,0
2022-10-08T03:17:20.653Z,0
2022-10-08T03:19:00.411Z,0
2022-10-08T03:20:40.174Z,0
2022-10-08T03:23:59.716Z,0
2022-10-08T03:25:39.481Z,0
2022-10-08T03:27:19.267Z,0
2022-10-08T03:28:59.007Z,0
2022-10-08T03:30:38.773Z,0
2022-10-08T03:33:58.306Z,0
2022-10-08T03:35:38.046Z,0
2022-10-08T03:37:17.824Z,0
2022-10-08T03:38:57.591Z,0
2022-10-08T03:40:37.346Z,0
2022-10-08T03:42:17.118Z,0
2022-10-08T03:43:56.896Z,0
2022-10-08T03:45:36.657Z,0
2022-10-08T03:47:16.422Z,0
2022-10-08T03:48:56.176Z,0
2022-10-08T03:53:55.546Z,0
2022-10-08T03:55:35.243Z,0
2022-10-08T03:57:14.986Z,0
2022-10-08T03:58:54.753Z,0
2022-10-08T04:00:34.507Z,0
2022-10-08T04:03:54.042Z,0
2022-10-08T04:05:33.817Z,0
2022-10-08T04:07:13.571Z,0
2022-10-08T04:08:53.366Z,0
2022-10-08T04:10:33.115Z,0
2022-10-08T04:13:52.625Z,0
2022-10-08T04:15:32.399Z,0
2022-10-08T04:17:12.169Z,0
2022-10-08T04:20:31.682Z,0
2022-10-08T04:22:11.449Z,0
2022-10-08T04:25:30.964Z,0
2022-10-08T04:27:10.749Z,0
2022-10-08T04:30:30.267Z,0
2022-10-08T04:33:49.791Z,0
2022-10-08T04:35:29.556Z,0
2022-10-08T04:37:09.390Z,0
2022-10-08T04:38:49.105Z,0
2022-10-08T04:40:28.856Z,0
2022-10-08T04:43:48.374Z,0
2022-10-08T04:45:28.151Z,0
2022-10-08T04:47:07.915Z,0
2022-10-08T04:48:47.687Z,0
2022-10-08T04:50:27.461Z,0
2022-10-08T04:53:46.989Z,0
2022-10-08T04:55:26.729Z,0
2022-10-08T04:57:06.485Z,0
2022-10-08T05:00:26.022Z,0
2022-10-08T05:02:05.789Z,0
2022-10-08T05:03:45.534Z,0
2022-10-08T05:05:25.306Z,0
2022-10-08T05:07:05.061Z,0
2022-10-08T05:08:44.835Z,0
2022-10-08T05:10:24.605Z,0
2022-10-08T05:15:23.889Z,0
2022-10-08T05:17:03.649Z,0
2022-10-08T05:18:43.427Z,0
2022-10-08T05:20:23.170Z,0
2022-10-08T05:22:02.939Z,0
2022-10-08T05:23:42.707Z,0
2022-10-08T05:25:22.504Z,0
2022-10-08T05:27:02.244Z,0
2022-10-08T05:30:21.763Z,0
2022-10-08T05:33:41.289Z,0
2022-10-08T05:35:21.046Z,0
2022-10-08T05:37:00.828Z,0
2022-10-08T05:38:40.582Z,0.12
2022-10-08T05:40:20.351Z,0.25
2022-10-08T05:42:00.124Z,0
2022-10-08T05:43:39.867Z,0.12
2022-10-08T05:45:19.645Z,0
2022-10-08T05:46:59.403Z,0
2022-10-08T05:48:39.175Z,0.25
2022-10-08T05:50:18.925Z,0.12
2022-10-08T05:53:38.473Z,0.12
2022-10-08T05:55:18.221Z,0
2022-10-08T05:56:57.998Z,0.25
2022-10-08T05:58:37.748Z,0.12
2022-10-08T06:00:17.508Z,0.38
2022-10-08T06:03:37.052Z,0.38
2022-10-08T06:05:16.799Z,0.51
2022-10-08T06:06:56.595Z,0.38
2022-10-08T06:08:36.336Z,0.38
2022-10-08T06:10:16.140Z,0.38
2022-10-08T06:13:35.613Z,0.38
2022-10-08T06:15:15.390Z,0.38
2022-10-08T06:16:55.178Z,0.38
2022-10-08T06:18:34.948Z,0.38
2022-10-08T06:21:54.439Z,0.51
2022-10-08T06:23:34.258Z,0.64
2022-10-08T06:25:13.975Z,0.51
2022-10-08T06:26:53.740Z,0.64
2022-10-08T06:28:33.526Z,0.77
2022-10-08T06:30:13.262Z,0.77
2022-10-08T06:31:53.026Z,0.9
2022-10-08T06:33:32.796Z,1.04
2022-10-08T06:35:12.613Z,1.04
2022-10-08T06:38:32.070Z,1.58
2022-10-08T06:41:51.598Z,1.59
2022-10-08T06:43:31.402Z,4.17
2022-10-08T06:45:11.162Z,1.35
2022-10-08T06:46:50.933Z,1.48
2022-10-08T06:48:30.669Z,1.48
2022-10-08T06:50:10.428Z,1.35
2022-10-08T06:53:29.949Z,2.04
2022-10-08T06:55:09.718Z,3.59
2022-10-08T06:56:49.490Z,3.06
2022-10-08T06:58:29.250Z,2.92
2022-10-08T07:00:09.009Z,4.64
2022-10-08T07:01:48.774Z,3.66
2022-10-08T07:03:28.540Z,3.36
2022-10-08T07:05:08.290Z,7.98
2022-10-08T07:06:48.072Z,9.43
2022-10-08T07:11:47.349Z,8.89
2022-10-08T07:13:27.115Z,5.37
2022-10-08T07:15:06.904Z,10.36
2022-10-08T07:16:46.654Z,3.51
2022-10-08T07:18:26.414Z,3.2
2022-10-08T07:20:06.175Z,3.5
2022-10-08T07:23:25.797Z,2.21
2022-10-08T07:25:05.553Z,1.92
2022-10-08T07:26:45.230Z,1.92
2022-10-08T07:28:25.226Z,1.78
2022-10-08T07:30:04.860Z,2.48
2022-10-08T07:31:44.526Z,3.33
2022-10-08T07:33:24.352Z,10.02
2022-10-08T07:35:04.107Z,8.12
2022-10-08T07:36:43.894Z,7.82
2022-10-08T07:38:23.579Z,7.67
2022-10-08T07:40:03.480Z,7.33
2022-10-08T07:41:43.109Z,7.22
2022-10-08T07:43:22.902Z,7.06
2022-10-08T07:45:02.638Z,6.9
2022-10-08T07:46:42.433Z,6.89
2022-10-08T07:48:22.188Z,6.61
2022-10-08T07:50:01.937Z,6.31
2022-10-08T07:51:41.739Z,6.48
2022-10-08T07:53:21.500Z,6.32
2022-10-08T07:55:01.253Z,5.86
2022-10-08T07:56:41.027Z,5.99
2022-10-08T07:58:20.791Z,5.86
2022-10-08T08:00:00.508Z,5.54
2022-10-08T08:01:40.397Z,5.74
2022-10-08T08:03:20.150Z,5.42
2022-10-08T08:04:59.794Z,5.4
2022-10-08T08:06:39.578Z,5.6
2022-10-08T08:08:19.336Z,5.31
2022-10-08T08:09:59.125Z,5.27
2022-10-08T08:11:38.868Z,5.13
2022-10-08T08:13:18.723Z,4.98
2022-10-08T08:14:58.400Z,4.83
2022-10-08T08:16:38.203Z,4.83
2022-10-08T08:18:17.920Z,4.69
2022-10-08T08:19:57.786Z,4.69
2022-10-08T08:21:37.450Z,4.53
2022-10-08T08:23:17.285Z,4.55
2022-10-08T08:26:36.753Z,4.56
2022-10-08T08:28:16.508Z,4.23
2022-10-08T08:29:56.346Z,4.25
2022-10-08T08:31:36.043Z,4.26
2022-10-08T08:34:55.581Z,4.11
2022-10-08T08:36:35.322Z,4.1
2022-10-08T08:38:15.084Z,3.96
2022-10-08T08:39:54.855Z,3.94
2022-10-08T08:41:34.616Z,3.96
2022-10-08T08:43:14.382Z,3.81
2022-10-08T08:44:54.148Z,3.39
2022-10-08T08:46:33.901Z,3.81
2022-10-08T08:48:13.665Z,3.66
2022-10-08T08:49:53.454Z,3.66
2022-10-08T08:51:33.257Z,3.66
2022-10-08T08:53:12.974Z,3.65
2022-10-08T08:54:52.796Z,3.51
2022-10-08T08:56:32.491Z,3.51
2022-10-08T08:58:12.291Z,3.51
2022-10-08T08:59:52.051Z,3.5
2022-10-08T09:03:11.537Z,3.36
2022-10-08T09:04:51.306Z,3.35
2022-10-08T09:06:31.100Z,3.36
2022-10-08T09:08:10.826Z,3.37
2022-10-08T09:09:50.600Z,3.37
2022-10-08T09:11:30.373Z,3.21
2022-10-08T09:13:10.117Z,3.05
2022-10-08T09:14:49.976Z,3.06
2022-10-08T09:16:29.659Z,3.21
2022-10-08T09:19:49.170Z,3.07
2022-10-08T09:21:28.949Z,3.07
2022-10-08T09:23:08.711Z,3.06
2022-10-08T09:24:48.471Z,3.07
2022-10-08T09:26:28.221Z,3.06
2022-10-08T09:29:47.781Z,3.24
2022-10-08T09:31:27.527Z,3.08
2022-10-08T09:33:07.373Z,0.28
2022-10-08T09:34:47.083Z,0.27
2022-10-08T09:38:06.591Z,2.24
2022-10-08T09:39:46.345Z,2.39
2022-10-08T09:43:05.973Z,1.82
2022-10-08T09:44:45.663Z,1.68
2022-10-08T09:46:25.437Z,1.68
2022-10-08T09:48:05.169Z,1.96
2022-10-08T09:49:44.929Z,1.82
2022-10-08T09:51:24.831Z,1.81
2022-10-08T09:53:04.477Z,1.81
2022-10-08T09:54:44.227Z,1.81
2022-10-08T09:56:23.981Z,1.67
2022-10-08T09:58:03.768Z,1.81
2022-10-08T09:59:43.512Z,1.81
2022-10-08T10:01:23.278Z,1.81
2022-10-08T10:03:03.052Z,1.81
2022-10-08T10:04:42.836Z,1.81
2022-10-08T10:06:22.566Z,1.81
2022-10-08T10:08:02.335Z,1.67
2022-10-08T10:09:42.098Z,1.67
2022-10-08T10:11:21.885Z,1.81
2022-10-08T10:13:01.742Z,1.81
2022-10-08T10:14:41.400Z,1.82
2022-10-08T10:16:21.167Z,1.67
2022-10-08T10:19:40.679Z,1.81
2022-10-08T10:21:20.442Z,1.67
2022-10-08T10:23:00.332Z,1.81
2022-10-08T10:24:39.977Z,1.82
2022-10-08T10:26:19.756Z,1.96
2022-10-08T10:27:59.498Z,1.96
2022-10-08T10:29:39.274Z,1.82
2022-10-08T10:31:19.024Z,1.82
2022-10-08T10:32:58.891Z,1.82
2022-10-08T10:34:38.607Z,1.82
2022-10-08T10:37:58.106Z,1.68
2022-10-08T10:39:37.854Z,1.67
2022-10-08T10:41:17.618Z,1.82
2022-10-08T10:42:57.495Z,1.96
2022-10-08T10:44:37.213Z,1.68
2022-10-08T10:46:16.894Z,1.54
2022-10-08T10:52:56.007Z,1.4
2022-10-08T10:54:35.736Z,1.53
2022-10-08T10:56:15.554Z,1.53
2022-10-08T10:57:55.319Z,1.53
2022-10-08T10:59:35.113Z,1.66
2022-10-08T11:02:54.664Z,1.53
2022-10-08T11:04:34.374Z,1.67
2022-10-08T11:09:33.631Z,1.53
2022-10-08T11:11:13.354Z,1.53
2022-10-08T11:12:53.137Z,1.67
2022-10-08T11:14:32.949Z,1.67
2022-10-08T11:16:12.695Z,1.82
2022-10-08T11:17:52.433Z,1.68
2022-10-08T11:19:32.211Z,1.54
2022-10-08T11:21:11.942Z,1.68
2022-10-08T11:22:51.706Z,1.54
2022-10-08T11:24:31.485Z,1.54
2022-10-08T11:26:11.233Z,1.54
2022-10-08T11:29:30.816Z,1.68
2022-10-08T11:31:10.532Z,1.54
2022-10-08T11:34:30.120Z,1.25
2022-10-08T11:36:09.833Z,1.39
2022-10-08T11:37:49.650Z,1.4
2022-10-08T11:39:29.336Z,1.53
2022-10-08T11:41:09.149Z,1.53
2022-10-08T11:42:49.064Z,1.54
2022-10-08T11:46:08.397Z,1.4
2022-10-08T11:47:48.290Z,1.39
2022-10-08T11:49:27.948Z,1.53
2022-10-08T11:51:07.705Z,1.4
2022-10-08T11:52:47.570Z,1.54
2022-10-08T11:54:27.226Z,1.54
2022-10-08T11:56:06.982Z,1.4
2022-10-08T11:57:46.775Z,1.54
2022-10-08T11:59:26.522Z,1.68
2022-10-08T12:01:06.382Z,1.4
2022-10-08T12:02:46.050Z,1.4
2022-10-08T12:04:25.812Z,1.4
2022-10-08T12:07:45.420Z,1.4
2022-10-08T12:09:25.123Z,1.26
2022-10-08T12:11:04.875Z,1.4
2022-10-08T12:12:44.787Z,1.4
2022-10-08T12:14:24.503Z,1.4
2022-10-08T12:16:04.161Z,1.4
2022-10-08T12:17:43.916Z,1.25
2022-10-08T12:19:23.693Z,1.25
2022-10-08T12:21:03.444Z,1.25
2022-10-08T12:22:43.216Z,1.25
2022-10-08T12:24:23.051Z,1.25
2022-10-08T12:26:02.742Z,1.25
2022-10-08T12:27:42.511Z,1.39
2022-10-08T12:31:02.054Z,1.25
2022-10-08T12:32:41.800Z,1.39
2022-10-08T12:34:21.593Z,1.25
2022-10-08T12:36:01.327Z,1.4
2022-10-08T12:37:41.218Z,1.25
2022-10-08T12:39:20.865Z,1.25
2022-10-08T12:41:00.622Z,1.26
2022-10-08T12:44:20.148Z,1.11
2022-10-08T12:45:59.944Z,1.11
2022-10-08T12:47:39.755Z,1.12
2022-10-08T12:49:19.437Z,1.4
2022-10-08T12:50:59.216Z,1.26
2022-10-08T12:52:39.027Z,1.26
2022-10-08T12:54:18.733Z,1.26
2022-10-08T12:55:58.506Z,1.25
2022-10-08T12:57:38.274Z,1.4
2022-10-08T12:59:18.016Z,1.26
2022-10-08T13:00:57.773Z,1.25
2022-10-08T13:02:37.542Z,1.25
2022-10-08T13:04:17.320Z,1.11
2022-10-08T13:05:57.102Z,1.25
2022-10-08T13:07:36.866Z,1.11
2022-10-08T13:09:16.610Z,1.11
2022-10-08T13:10:56.391Z,1.39
2022-10-08T13:12:36.149Z,0.83
2022-10-08T13:15:55.660Z,1.11
2022-10-08T13:20:54.959Z,1.12
2022-10-08T13:22:34.734Z,1.11
2022-10-08T13:24:14.487Z,1.11
2022-10-08T13:25:54.301Z,1.11
2022-10-08T13:27:34.016Z,1.11
2022-10-08T13:29:13.774Z,1.11
2022-10-08T13:30:53.590Z,1.11
2022-10-08T13:32:33.401Z,1.11
2022-10-08T13:34:13.071Z,1.26
2022-10-08T13:35:52.823Z,1.25
2022-10-08T13:39:12.361Z,0.97
2022-10-08T13:40:52.114Z,1.4
2022-10-08T13:42:31.881Z,1.11
2022-10-08T13:44:11.651Z,1.11
2022-10-08T13:45:51.406Z,1.25
2022-10-08T13:47:31.173Z,1.12
2022-10-08T13:50:50.717Z,1.25
2022-10-08T13:52:30.511Z,0.97
2022-10-08T13:54:10.240Z,1.11
2022-10-08T13:55:50.048Z,1.11
2022-10-08T13:57:29.778Z,1.12
2022-10-08T13:59:09.530Z,0.97
2022-10-08T14:00:49.283Z,1.25
2022-10-08T14:02:29.053Z,1.25
2022-10-08T14:04:08.811Z,1.11
2022-10-08T14:05:48.594Z,1.11
2022-10-08T14:09:08.100Z,1.11
2022-10-08T14:10:47.880Z,1.11
2022-10-08T14:12:27.630Z,0.97
2022-10-08T14:14:07.400Z,0.97
2022-10-08T14:15:47.236Z,1.11
2022-10-08T14:19:06.703Z,1.11
2022-10-08T14:20:46.459Z,1.11
2022-10-08T14:22:26.221Z,1.11
2022-10-08T14:24:05.997Z,0.97
2022-10-08T14:25:45.756Z,1.11
2022-10-08T14:27:25.497Z,1.11
2022-10-08T14:29:05.270Z,0.97
2022-10-08T14:30:45.083Z,1.11
2022-10-08T14:32:24.811Z,0.97
2022-10-08T14:34:04.597Z,0.97
2022-10-08T14:37:24.125Z,0.97
2022-10-08T14:39:03.854Z,0.97
2022-10-08T14:40:43.654Z,1.11
2022-10-08T14:42:23.404Z,1.11
2022-10-08T14:44:03.175Z,1.25
2022-10-08T14:45:42.924Z,1.12
2022-10-08T14:49:02.447Z,0.97
2022-10-08T14:50:42.202Z,1.11
2022-10-08T14:52:21.967Z,1.25
2022-10-08T14:54:01.779Z,1.11
2022-10-08T14:55:41.525Z,0.41
2022-10-08T14:57:21.262Z,0.54
2022-10-08T15:00:40.796Z,0.95
2022-10-08T15:02:20.559Z,1.5
2022-10-08T15:04:00.321Z,0.58
2022-10-08T15:05:40.103Z,1.11
2022-10-08T15:08:59.618Z,1.11
2022-10-08T15:10:39.384Z,1.12
2022-10-08T15:12:19.173Z,1.12
2022-10-08T15:13:58.923Z,1.11
2022-10-08T15:15:38.681Z,1.12
2022-10-08T15:17:18.512Z,1.12
2022-10-08T15:18:58.202Z,1.12
2022-10-08T15:20:37.950Z,0.97
2022-10-08T15:22:17.716Z,1.12
2022-10-08T15:23:57.572Z,0.97
2022-10-08T15:25:37.293Z,1.12
2022-10-08T15:30:36.551Z,0.98
2022-10-08T15:32:16.306Z,1.12
2022-10-08T15:33:56.154Z,1.11
2022-10-08T15:35:35.846Z,0.54
2022-10-08T15:38:55.352Z,0.4
2022-10-08T15:40:35.119Z,0.26
2022-10-08T15:42:14.894Z,0
2022-10-08T15:43:54.655Z,0
2022-10-08T15:47:14.183Z,0
2022-10-08T15:50:33.710Z,0
2022-10-08T15:52:13.544Z,0
2022-10-08T15:53:53.275Z,0
2022-10-08T15:55:33.006Z,0
2022-10-08T15:57:12.761Z,0
2022-10-08T15:58:52.524Z,0
2022-10-08T16:02:12.056Z,0.26
2022-10-08T16:03:51.849Z,0.26
2022-10-08T16:05:31.577Z,0
2022-10-08T16:07:11.369Z,0
2022-10-08T16:08:51.129Z,0
2022-10-08T16:10:30.870Z,0
2022-10-08T16:12:10.640Z,0
2022-10-08T16:13:50.436Z,0
2022-10-08T16:15:30.202Z,0
2022-10-08T16:17:09.942Z,0
2022-10-08T16:18:49.752Z,0
2022-10-08T16:20:29.450Z,0
2022-10-08T16:22:09.227Z,0
2022-10-08T16:23:48.982Z,0
2022-10-08T16:25:28.749Z,0
2022-10-08T16:27:08.525Z,0
2022-10-08T16:28:48.294Z,0
2022-10-08T16:30:28.128Z,0
2022-10-08T16:32:07.800Z,0
2022-10-08T16:33:47.585Z,0
2022-10-08T16:37:07.090Z,0
2022-10-08T16:38:46.941Z,0
2022-10-08T16:40:26.616Z,0
2022-10-08T16:42:06.393Z,0
2022-10-08T16:43:46.146Z,0
2022-10-08T16:45:25.945Z,0
2022-10-08T16:47:05.753Z,0
2022-10-08T16:48:45.467Z,0
2022-10-08T16:50:25.250Z,0
2022-10-08T16:52:05.060Z,0
2022-10-08T16:53:44.808Z,0
2022-10-08T16:55:24.535Z,0
2022-10-08T16:57:04.266Z,0
2022-10-08T16:58:44.054Z,0
2022-10-08T17:00:23.802Z,0
2022-10-08T17:02:03.557Z,0
2022-10-08T17:03:43.317Z,0
2022-10-08T17:07:02.847Z,0
2022-10-08T17:10:22.367Z,0
2022-10-08T17:12:02.150Z,0
2022-10-08T17:13:41.900Z,0
2022-10-08T17:15:21.670Z,0
2022-10-08T17:17:01.512Z,0
2022-10-08T17:18:41.197Z,0
2022-10-08T17:20:20.945Z,0
2022-10-08T17:22:00.720Z,0
2022-10-08T17:23:40.490Z,0
2022-10-08T17:25:20.266Z,0
2022-10-08T17:26:59.999Z,0
2022-10-08T17:28:39.781Z,0
2022-10-08T17:30:19.538Z,0
2022-10-08T17:31:59.329Z,0
2022-10-08T17:33:39.096Z,0
2022-10-08T17:35:18.833Z,0
2022-10-08T17:36:58.625Z,0
2022-10-08T17:38:38.360Z,0
2022-10-08T17:40:18.116Z,0
2022-10-08T17:41:57.882Z,0
2022-10-08T17:43:37.696Z,0
2022-10-08T17:45:17.443Z,0
2022-10-08T17:46:57.173Z,0
2022-10-08T17:48:36.952Z,0
2022-10-08T17:50:16.721Z,0
2022-10-08T17:51:56.471Z,0
2022-10-08T17:53:36.244Z,0
2022-10-08T17:55:16.000Z,0
2022-10-08T17:56:55.795Z,0
2022-10-08T17:58:35.518Z,0
2022-10-08T18:00:15.292Z,0
2022-10-08T18:03:34.815Z,0
2022-10-08T18:05:14.611Z,0
2022-10-08T18:08:34.101Z,0
2022-10-08T18:10:13.876Z,0
2022-10-08T18:11:53.626Z,0
2022-10-08T18:13:33.439Z,0
2022-10-08T18:15:13.167Z,0
2022-10-08T18:16:52.934Z,0
2022-10-08T18:18:32.695Z,0
2022-10-08T18:20:12.456Z,0
2022-10-08T18:21:52.229Z,0
2022-10-08T18:23:31.977Z,0
2022-10-08T18:25:11.778Z,0
2022-10-08T18:26:51.518Z,0
2022-10-08T18:28:31.277Z,0
2022-10-08T18:30:11.040Z,0
2022-10-08T18:33:30.570Z,0
2022-10-08T18:35:10.350Z,0
2022-10-08T18:38:29.853Z,0
2022-10-08T18:40:09.683Z,0
2022-10-08T18:41:49.399Z,0
2022-10-08T18:43:29.196Z,0
2022-10-08T18:45:08.938Z,0
2022-10-08T18:48:28.455Z,0
2022-10-08T18:50:08.215Z,0
2022-10-08T18:51:48.019Z,0
2022-10-08T18:53:27.801Z,0
2022-10-08T18:55:07.541Z,0
2022-10-08T18:56:47.287Z,0
2022-10-08T18:58:27.034Z,0
2022-10-08T19:00:06.841Z,0
2022-10-08T19:01:46.559Z,0
2022-10-08T19:05:06.183Z,0
2022-10-08T19:06:45.874Z,0
2022-10-08T19:10:05.395Z,0
2022-10-08T19:11:45.194Z,0
2022-10-08T19:13:25.015Z,0
2022-10-08T19:15:04.662Z,0
2022-10-08T19:16:44.494Z,0
2022-10-08T19:18:24.195Z,0
2022-10-08T19:20:04.001Z,0
2022-10-08T19:21:43.709Z,0
2022-10-08T19:23:23.518Z,0
2022-10-08T19:25:03.243Z,0
2022-10-08T19:26:43.017Z,0
2022-10-08T19:28:22.782Z,0
2022-10-08T19:31:42.325Z,0
2022-10-08T19:33:22.077Z,0
2022-10-08T19:35:01.932Z,0
2022-10-08T19:36:41.621Z,0
2022-10-08T19:40:01.198Z,0
2022-10-08T19:41:40.881Z,0
2022-10-08T19:43:20.658Z,0
2022-10-08T19:46:40.180Z,0
2022-10-08T19:48:19.940Z,0
2022-10-08T19:49:59.791Z,0
2022-10-08T19:51:39.533Z,0
2022-10-08T19:53:19.227Z,0
2022-10-08T19:54:59.002Z,0
2022-10-08T19:56:38.795Z,0
2022-10-08T19:58:18.562Z,0
2022-10-08T19:59:58.308Z,0
2022-10-08T20:01:38.057Z,0
2022-10-08T20:03:17.813Z,0
2022-10-08T20:04:57.571Z,0
2022-10-08T20:06:37.348Z,0
2022-10-08T20:08:17.102Z,0
2022-10-08T20:09:56.896Z,0
2022-10-08T20:11:36.690Z,0
2022-10-08T20:13:16.411Z,0
2022-10-08T20:14:56.182Z,0
2022-10-08T20:16:35.947Z,0
2022-10-08T20:18:15.725Z,0
2022-10-08T20:19:55.462Z,0
2022-10-08T20:21:35.237Z,0
2022-10-08T20:23:14.976Z,0
2022-10-08T20:24:54.768Z,0
2022-10-08T20:28:14.272Z,0
2022-10-08T20:29:54.058Z,0
2022-10-08T20:31:33.813Z,0
2022-10-08T20:33:13.653Z,0
2022-10-08T20:34:53.338Z,0
2022-10-08T20:36:33.120Z,0
2022-10-08T20:38:12.850Z,0
2022-10-08T20:41:32.382Z,0
2022-10-08T20:43:12.220Z,0
2022-10-08T20:44:51.926Z,0
2022-10-08T20:46:31.677Z,0
2022-10-08T20:48:11.446Z,0
2022-10-08T20:49:51.208Z,0
2022-10-08T20:51:31.019Z,0
2022-10-08T20:53:10.838Z,0
2022-10-08T20:54:50.510Z,0
2022-10-08T20:56:30.304Z,0
2022-10-08T20:58:10.027Z,0
2022-10-08T20:59:49.797Z,0
2022-10-08T21:01:29.645Z,0
2022-10-08T21:03:09.360Z,0
2022-10-08T21:04:49.080Z,0
2022-10-08T21:06:28.871Z,0
2022-10-08T21:08:08.616Z,0
2022-10-08T21:09:48.405Z,0
2022-10-08T21:11:28.130Z,0
2022-10-08T21:13:07.896Z,0
2022-10-08T21:14:47.659Z,0
2022-10-08T21:16:27.484Z,0
2022-10-08T21:18:07.202Z,0
2022-10-08T21:19:46.949Z,0
2022-10-08T21:21:26.716Z,0
2022-10-08T21:24:46.239Z,0
2022-10-08T21:26:26.013Z,0
2022-10-08T21:28:05.808Z,0
2022-10-08T21:31:25.347Z,0
2022-10-08T21:33:05.192Z,0
2022-10-08T21:34:44.828Z,0
2022-10-08T21:38:04.415Z,0
2022-10-08T21:39:44.107Z,0
2022-10-08T21:41:23.894Z,0
2022-10-08T21:43:03.671Z,0
2022-10-08T21:44:43.434Z,0
2022-10-08T21:48:02.947Z,0
2022-10-08T21:49:42.728Z,0
2022-10-08T21:53:02.270Z,0
2022-10-08T21:54:42.042Z,0
2022-10-08T21:56:21.823Z,0
2022-10-08T21:58:01.572Z,0
2022-10-08T22:01:21.050Z,0
2022-10-08T22:03:00.837Z,0
2022-10-08T22:04:40.671Z,0
2022-10-08T22:06:20.330Z,0
2022-10-08T22:08:00.133Z,0
2022-10-08T22:09:39.878Z,0
2022-10-08T22:11:19.639Z,0
2022-10-08T22:12:59.463Z,0
2022-10-08T22:14:39.156Z,0
2022-10-08T22:16:18.957Z,0
2022-10-08T22:17:58.719Z,0
2022-10-08T22:21:18.210Z,0
2022-10-08T22:22:58.037Z,0
2022-10-08T22:24:37.744Z,0
2022-10-08T22:26:17.518Z,0
2022-10-08T22:27:57.289Z,0
2022-10-08T22:29:37.073Z,0
2022-10-08T22:31:16.799Z,0
2022-10-08T22:32:56.658Z,0
2022-10-08T22:34:36.318Z,0
2022-10-08T22:36:16.127Z,0
2022-10-08T22:39:35.616Z,0
2022-10-08T22:42:55.225Z,0
2022-10-08T22:44:34.920Z,0
2022-10-08T22:46:14.787Z,0
2022-10-08T22:47:54.427Z,0
2022-10-08T22:49:34.260Z,0
2022-10-08T22:51:13.981Z,0
2022-10-08T22:52:53.821Z,0
2022-10-08T22:54:33.522Z,0
2022-10-08T22:56:13.266Z,0
2022-10-08T22:57:53.020Z,0
2022-10-08T22:59:32.793Z,0
2022-10-08T23:02:52.391Z,0
2022-10-08T23:04:32.156Z,0
2022-10-08T23:06:11.829Z,0
2022-10-08T23:07:51.592Z,0
2022-10-08T23:09:31.418Z,0
2022-10-08T23:11:11.131Z,0
2022-10-08T23:12:50.961Z,0
2022-10-08T23:16:10.472Z,0
2022-10-08T23:17:50.226Z,0
2022-10-08T23:19:29.963Z,0
2022-10-08T23:21:09.726Z,0
2022-10-08T23:22:49.483Z,0
2022-10-08T23:24:29.277Z,0
2022-10-08T23:27:48.766Z,0
2022-10-08T23:29:28.534Z,0
2022-10-08T23:32:48.061Z,0
2022-10-08T23:34:27.915Z,0
2022-10-08T23:36:07.641Z,0
2022-10-08T23:37:47.365Z,0
2022-10-08T23:39:27.109Z,0
2022-10-08T23:41:06.879Z,0
2022-10-08T23:44:26.460Z,0
2022-10-08T23:46:06.209Z,0
2022-10-08T23:49:25.750Z,0
2022-10-08T23:51:05.476Z,0
2022-10-08T23:52:45.329Z,0
2022-10-08T23:54:24.987Z,0
2022-10-08T23:56:04.744Z,0
2022-10-08T23:57:44.551Z,0
2022-10-08T23:59:24.303Z,0
